Time;durP1;ratioP1;P1;durP2;ratioP2;P2;SDS_P1;SDS_P2;PMS_P1;PMS_P2;Temp;Humidity;BMP_temperature;BMP_pressure;BME280_temperature;BME280_humidity;BME280_pressure;Samples;Min_cycle;Max_cycle;Signal;HPM_P1;HPM_P2
2024/02/18 00:01:40;;;;;;;11.25;3.78;;;11.50;99.90;;;;;;5042441;28;20617;-85
2024/02/18 00:04:06;;;;;;;13.25;4.15;;;11.50;99.90;;;;;;5040811;28;20432;-85
2024/02/18 00:06:32;;;;;;;11.98;4.32;;;11.40;99.90;;;;;;5025484;28;20036;-85
2024/02/18 00:08:57;;;;;;;11.27;4.15;;;11.40;99.90;;;;;;5041358;28;20032;-84
2024/02/18 00:11:23;;;;;;;9.10;4.18;;;11.40;99.90;;;;;;5024351;28;20018;-85
2024/02/18 00:13:48;;;;;;;11.55;4.13;;;11.40;99.90;;;;;;5043165;28;20071;-85
2024/02/18 00:16:14;;;;;;;9.27;3.47;;;11.40;99.90;;;;;;5041946;28;20026;-85
2024/02/18 00:18:40;;;;;;;9.50;3.83;;;11.40;99.90;;;;;;5025198;28;20394;-86
2024/02/18 00:21:05;;;;;;;8.68;3.40;;;11.40;99.90;;;;;;5024622;28;20115;-85
2024/02/18 00:23:31;;;;;;;9.57;3.67;;;11.40;99.90;;;;;;5042859;28;20026;-85
2024/02/18 00:25:57;;;;;;;10.70;3.88;;;11.40;99.90;;;;;;5024952;28;20037;-85
2024/02/18 00:28:23;;;;;;;7.63;3.35;;;11.40;99.90;;;;;;5024717;28;20120;-85
2024/02/18 00:30:50;;;;;;;10.50;3.92;;;11.40;99.90;;;;;;5024650;28;20519;-85
2024/02/18 00:33:16;;;;;;;8.10;3.42;;;11.40;99.90;;;;;;5041747;28;20053;-85
2024/02/18 00:35:42;;;;;;;11.68;3.80;;;11.40;99.90;;;;;;5042928;28;20025;-84
2024/02/18 00:38:08;;;;;;;11.75;3.50;;;11.30;99.90;;;;;;5041405;28;20033;-85
2024/02/18 00:40:33;;;;;;;11.40;4.00;;;11.40;99.90;;;;;;5024623;28;20028;-84
2024/02/18 00:42:59;;;;;;;10.48;3.05;;;11.40;99.90;;;;;;5042118;28;20029;-84
2024/02/18 00:45:25;;;;;;;8.32;3.42;;;11.40;99.90;;;;;;5024241;28;20060;-85
2024/02/18 00:47:50;;;;;;;9.15;3.17;;;11.30;99.90;;;;;;5024753;28;20051;-84
2024/02/18 00:50:16;;;;;;;11.10;3.60;;;11.30;99.90;;;;;;5023367;28;20065;-85
2024/02/18 00:52:42;;;;;;;8.10;3.38;;;11.30;99.90;;;;;;5024301;28;20018;-85
2024/02/18 00:55:08;;;;;;;11.43;3.17;;;11.30;99.90;;;;;;5023612;28;20027;-85
2024/02/18 00:57:34;;;;;;;9.18;3.08;;;11.30;99.90;;;;;;5024869;28;20029;-84
2024/02/18 01:00:00;;;;;;;8.48;3.33;;;11.20;99.90;;;;;;5020652;28;20048;-84
2024/02/18 01:02:30;;;;;;;8.52;2.42;;;11.20;99.90;;;;;;5022143;28;20452;-85
2024/02/18 01:04:59;;;;;;;7.60;2.47;;;11.20;99.90;;;;;;5020804;28;20539;-84
2024/02/18 01:07:25;;;;;;;10.93;2.80;;;11.20;99.90;;;;;;5019750;28;20485;-84
2024/02/18 01:09:51;;;;;;;7.43;2.58;;;11.20;99.90;;;;;;5022586;28;20489;-84
2024/02/18 01:12:17;;;;;;;6.25;2.40;;;11.20;99.90;;;;;;5036372;28;20029;-85
2024/02/18 01:14:43;;;;;;;9.13;2.72;;;11.20;99.90;;;;;;5021457;28;20022;-84
2024/02/18 01:17:11;;;;;;;11.85;2.50;;;11.20;99.90;;;;;;5021856;28;20483;-85
2024/02/18 01:19:36;;;;;;;12.00;2.60;;;11.20;99.90;;;;;;5021632;28;20140;-84
2024/02/18 01:22:03;;;;;;;8.90;2.47;;;11.20;99.90;;;;;;5020937;28;20022;-85
2024/02/18 01:24:28;;;;;;;6.38;2.22;;;11.20;99.90;;;;;;5019450;28;20109;-84
2024/02/18 01:26:54;;;;;;;9.30;2.70;;;11.20;99.90;;;;;;5022406;28;20025;-87
2024/02/18 01:29:21;;;;;;;7.05;2.20;;;11.20;99.90;;;;;;5019755;28;20018;-87
2024/02/18 01:31:47;;;;;;;9.48;2.50;;;11.10;99.90;;;;;;5021902;28;20617;-87
2024/02/18 01:34:12;;;;;;;8.18;2.42;;;11.20;99.90;;;;;;5019955;28;20030;-87
2024/02/18 01:36:38;;;;;;;5.50;1.80;;;11.10;99.90;;;;;;5020757;28;20021;-88
2024/02/18 01:39:04;;;;;;;8.82;2.20;;;11.10;99.90;;;;;;5021161;28;20029;-86
2024/02/18 01:41:30;;;;;;;9.85;2.42;;;11.20;99.90;;;;;;5019904;28;20022;-86
2024/02/18 01:43:55;;;;;;;9.07;2.45;;;11.20;99.90;;;;;;5020512;28;20027;-87
2024/02/18 01:46:22;;;;;;;11.00;2.63;;;11.20;99.90;;;;;;5019426;28;20025;-86
2024/02/18 01:48:48;;;;;;;10.32;2.80;;;11.20;99.90;;;;;;5020194;28;20025;-85
2024/02/18 01:51:14;;;;;;;6.57;2.20;;;11.20;99.90;;;;;;5036165;28;20054;-86
2024/02/18 01:53:41;;;;;;;11.85;3.17;;;11.20;99.90;;;;;;5020289;28;20048;-85
2024/02/18 01:56:08;;;;;;;8.38;2.22;;;11.20;99.90;;;;;;5020372;28;20026;-85
2024/02/18 01:58:34;;;;;;;9.77;2.95;;;11.20;99.90;;;;;;5027277;28;20054;-85
2024/02/18 02:01:00;;;;;;;10.77;2.78;;;11.20;99.90;;;;;;5023880;28;20017;-86
2024/02/18 02:03:27;;;;;;;9.90;2.75;;;11.20;99.90;;;;;;5039953;28;20026;-86
2024/02/18 02:05:54;;;;;;;7.20;3.05;;;11.20;99.90;;;;;;5039699;28;20481;-86
2024/02/18 02:08:22;;;;;;;9.05;3.10;;;11.20;99.90;;;;;;5022926;28;20028;-86
2024/02/18 02:10:50;;;;;;;8.60;2.45;;;11.20;99.90;;;;;;5041157;28;20124;-86
2024/02/18 02:13:16;;;;;;;12.52;3.05;;;11.20;99.90;;;;;;5040421;28;20022;-86
2024/02/18 02:15:41;;;;;;;10.15;3.38;;;11.20;99.90;;;;;;5022458;28;20085;-86
2024/02/18 02:18:07;;;;;;;9.70;3.33;;;11.20;99.90;;;;;;5023201;28;20029;-85
2024/02/18 02:20:33;;;;;;;7.90;3.03;;;11.20;99.90;;;;;;5021720;28;20017;-85
2024/02/18 02:22:58;;;;;;;11.57;3.25;;;11.20;99.90;;;;;;5041344;28;20485;-86
2024/02/18 02:25:24;;;;;;;8.05;3.13;;;11.20;99.90;;;;;;5022320;28;20040;-85
2024/02/18 02:27:58;;;;;;;9.60;2.53;;;11.20;99.90;;;;;;5023119;28;20028;-85
2024/02/18 02:30:23;;;;;;;10.02;3.58;;;11.20;99.90;;;;;;5022731;28;20026;-85
2024/02/18 02:32:49;;;;;;;12.95;3.90;;;11.20;99.90;;;;;;5039640;28;20056;-85
2024/02/18 02:35:15;;;;;;;8.75;3.00;;;11.20;99.90;;;;;;5041274;28;20030;-85
2024/02/18 02:37:41;;;;;;;7.28;2.45;;;11.20;99.90;;;;;;5039741;28;20393;-85
2024/02/18 02:40:08;;;;;;;10.00;3.10;;;11.20;99.90;;;;;;5022688;28;20078;-86
2024/02/18 02:42:33;;;;;;;10.60;3.25;;;11.20;99.90;;;;;;5022299;28;20017;-86
2024/02/18 02:44:59;;;;;;;11.20;3.08;;;11.20;99.90;;;;;;5023287;28;20043;-87
2024/02/18 02:47:25;;;;;;;12.05;3.00;;;11.20;99.90;;;;;;5022779;28;20025;-87
2024/02/18 02:49:50;;;;;;;9.02;2.95;;;11.20;99.90;;;;;;5040471;28;20021;-87
2024/02/18 02:52:16;;;;;;;9.05;2.90;;;11.20;99.90;;;;;;5023207;28;20089;-88
2024/02/18 02:54:42;;;;;;;11.15;2.85;;;11.20;99.90;;;;;;5022050;28;20022;-87
2024/02/18 02:57:07;;;;;;;10.68;2.88;;;11.20;99.90;;;;;;5023159;28;20100;-87
2024/02/18 02:59:33;;;;;;;12.85;3.55;;;11.20;99.90;;;;;;5018405;28;20038;-87
2024/02/18 03:01:59;;;;;;;7.53;3.00;;;11.20;99.90;;;;;;5019904;28;20022;-87
2024/02/18 03:04:25;;;;;;;9.50;2.95;;;11.20;99.90;;;;;;5019169;28;20037;-87
2024/02/18 03:06:50;;;;;;;9.27;2.92;;;11.20;99.90;;;;;;5035719;28;20089;-87
2024/02/18 03:09:17;;;;;;;9.68;2.55;;;11.20;99.90;;;;;;5020891;28;20033;-87
2024/02/18 03:11:43;;;;;;;10.52;2.92;;;11.20;99.90;;;;;;5018514;28;20022;-87
2024/02/18 03:14:08;;;;;;;10.10;2.67;;;11.20;99.90;;;;;;5020912;28;20025;-87
2024/02/18 03:16:34;;;;;;;10.38;2.88;;;11.20;99.90;;;;;;5017998;28;20370;-87
2024/02/18 03:19:00;;;;;;;8.15;2.97;;;11.20;99.90;;;;;;5019375;28;20030;-86
2024/02/18 03:21:26;;;;;;;10.88;2.60;;;11.20;99.90;;;;;;5018979;28;20030;-86
2024/02/18 03:23:53;;;;;;;6.20;2.50;;;11.20;99.90;;;;;;5019368;28;20026;-86
2024/02/18 03:26:19;;;;;;;7.88;2.60;;;11.20;99.90;;;;;;5039870;28;20061;-88
2024/02/18 03:28:44;;;;;;;8.98;2.40;;;11.20;99.90;;;;;;5021961;28;20093;-87
2024/02/18 03:31:18;;;;;;;6.93;2.35;;;11.20;99.90;;;;;;5022374;28;20089;-87
2024/02/18 03:33:43;;;;;;;9.63;2.35;;;11.20;99.90;;;;;;5022009;28;20056;-87
2024/02/18 03:36:09;;;;;;;5.13;2.20;;;11.20;99.90;;;;;;5023191;28;20410;-87
2024/02/18 03:38:35;;;;;;;8.80;2.70;;;11.20;99.90;;;;;;5022455;28;20040;-87
2024/02/18 03:41:05;;;;;;;7.60;2.10;;;11.20;99.90;;;;;;5022912;28;20025;-86
2024/02/18 03:43:31;;;;;;;7.78;2.15;;;11.20;99.90;;;;;;5023072;28;20026;-87
2024/02/18 03:45:57;;;;;;;9.50;2.03;;;11.20;99.90;;;;;;5021591;28;20048;-88
2024/02/18 03:48:23;;;;;;;9.82;2.45;;;11.20;99.90;;;;;;5023013;28;20040;-87
2024/02/18 03:50:50;;;;;;;6.28;2.08;;;11.20;99.90;;;;;;5021490;28;20018;-86
2024/02/18 03:53:16;;;;;;;7.60;1.88;;;11.20;99.90;;;;;;5039655;28;20034;-86
2024/02/18 03:55:42;;;;;;;5.25;2.08;;;11.20;99.90;;;;;;5023738;28;20052;-85
2024/02/18 03:58:08;;;;;;;7.75;2.40;;;11.20;99.90;;;;;;5026439;28;20018;-85
2024/02/18 04:00:34;;;;;;;8.02;2.17;;;11.20;99.90;;;;;;5029910;28;20021;-85
2024/02/18 04:02:59;;;;;;;9.23;1.95;;;11.20;99.90;;;;;;5026119;28;20086;-86
2024/02/18 04:05:25;;;;;;;8.52;1.80;;;11.20;99.90;;;;;;5026844;28;20108;-87
2024/02/18 04:07:51;;;;;;;11.93;3.30;;;11.10;99.90;;;;;;5025446;28;20026;-87
2024/02/18 04:10:17;;;;;;;8.82;2.47;;;11.20;99.90;;;;;;5044211;28;20028;-87
2024/02/18 04:12:42;;;;;;;7.72;2.53;;;11.10;99.90;;;;;;5043740;28;20021;-86
2024/02/18 04:15:08;;;;;;;11.57;2.58;;;11.10;99.90;;;;;;5025616;28;20029;-87
2024/02/18 04:17:34;;;;;;;7.95;2.50;;;11.10;99.90;;;;;;5025577;28;20441;-86
2024/02/18 04:20:00;;;;;;;10.23;3.53;;;11.10;99.90;;;;;;5025263;28;20018;-86
2024/02/18 04:22:25;;;;;;;8.57;2.30;;;11.10;99.90;;;;;;5025300;28;20090;-86
2024/02/18 04:24:51;;;;;;;9.43;2.90;;;11.10;99.90;;;;;;5042250;28;20037;-87
2024/02/18 04:27:17;;;;;;;10.05;2.72;;;11.10;99.90;;;;;;5025505;28;20018;-86
2024/02/18 04:29:43;;;;;;;10.00;2.63;;;11.10;99.90;;;;;;5024113;28;20013;-85
2024/02/18 04:32:09;;;;;;;9.30;2.83;;;11.10;99.90;;;;;;5024706;28;20029;-85
2024/02/18 04:34:35;;;;;;;7.82;2.80;;;11.00;99.90;;;;;;5042798;28;20021;-85
2024/02/18 04:37:01;;;;;;;10.07;2.72;;;11.00;99.90;;;;;;5023770;28;20033;-86
2024/02/18 04:39:26;;;;;;;9.57;2.72;;;11.00;99.90;;;;;;5024961;28;20025;-85
2024/02/18 04:41:52;;;;;;;7.18;2.58;;;11.00;99.90;;;;;;5023675;28;20018;-86
2024/02/18 04:44:18;;;;;;;7.13;2.63;;;10.90;99.90;;;;;;5024592;28;20041;-85
2024/02/18 04:46:43;;;;;;;6.53;2.58;;;10.90;99.90;;;;;;5023530;28;20556;-86
2024/02/18 04:49:14;;;;;;;7.43;2.67;;;10.90;99.90;;;;;;5024725;28;20044;-85
2024/02/18 04:51:39;;;;;;;8.20;2.72;;;10.80;99.90;;;;;;5042327;28;20017;-85
2024/02/18 04:54:05;;;;;;;10.05;3.03;;;10.80;99.90;;;;;;5023986;28;20060;-86
2024/02/18 04:56:31;;;;;;;9.45;2.67;;;10.80;99.90;;;;;;5024575;28;20022;-84
2024/02/18 04:58:57;;;;;;;8.43;2.35;;;10.80;99.90;;;;;;5023162;28;20045;-84
2024/02/18 05:01:22;;;;;;;12.35;2.70;;;10.80;99.90;;;;;;5042901;28;20426;-86
2024/02/18 05:03:48;;;;;;;8.77;2.42;;;10.80;99.90;;;;;;5041350;28;20081;-87
2024/02/18 05:06:13;;;;;;;9.10;2.90;;;10.70;99.90;;;;;;5042518;28;20544;-86
2024/02/18 05:08:39;;;;;;;7.35;2.40;;;10.70;99.90;;;;;;5023726;28;20061;-86
2024/02/18 05:11:05;;;;;;;7.20;2.88;;;10.70;99.90;;;;;;5041669;28;20057;-86
2024/02/18 05:13:30;;;;;;;13.98;3.40;;;10.60;99.90;;;;;;5043437;28;20021;-84
2024/02/18 05:15:56;;;;;;;6.67;2.90;;;10.60;99.90;;;;;;5023762;28;20029;-86
2024/02/18 05:18:23;;;;;;;8.40;3.13;;;10.60;99.90;;;;;;5039459;28;20009;-86
2024/02/18 05:20:49;;;;;;;9.70;3.20;;;10.60;99.90;;;;;;5034300;28;20017;-86
2024/02/18 05:23:14;;;;;;;11.10;2.75;;;10.50;99.90;;;;;;5061958;28;20017;-86
2024/02/18 05:25:40;;;;;;;8.95;3.38;;;10.50;99.90;;;;;;5042913;28;20453;-85
2024/02/18 05:28:06;;;;;;;11.73;2.75;;;10.50;99.90;;;;;;5061821;28;20339;-86
2024/02/18 05:30:32;;;;;;;9.52;2.72;;;10.50;99.90;;;;;;5043144;28;20040;-85
2024/02/18 05:32:58;;;;;;;10.27;3.28;;;10.40;99.90;;;;;;5043345;28;20020;-87
2024/02/18 05:35:24;;;;;;;13.23;3.60;;;10.40;99.90;;;;;;5044099;28;20044;-86
2024/02/18 05:37:50;;;;;;;9.80;3.27;;;10.40;99.90;;;;;;5042381;28;20117;-86
2024/02/18 05:40:16;;;;;;;9.17;3.80;;;10.40;99.90;;;;;;5043878;28;20043;-86
2024/02/18 05:42:41;;;;;;;8.25;3.33;;;10.40;99.90;;;;;;5042567;28;20083;-86
2024/02/18 05:45:08;;;;;;;8.70;3.10;;;10.30;99.90;;;;;;5061281;28;20072;-86
2024/02/18 05:47:34;;;;;;;8.20;3.03;;;10.30;99.90;;;;;;5061208;28;20152;-86
2024/02/18 05:50:00;;;;;;;8.87;3.00;;;10.30;99.90;;;;;;5042814;28;20025;-87
2024/02/18 05:52:25;;;;;;;13.68;3.20;;;10.30;99.90;;;;;;5061724;28;20025;-87
2024/02/18 05:54:51;;;;;;;12.87;3.13;;;10.30;99.90;;;;;;5060447;28;20060;-86
2024/02/18 05:57:17;;;;;;;9.10;2.88;;;10.30;99.90;;;;;;5043512;28;20021;-86
2024/02/18 05:59:42;;;;;;;7.87;3.10;;;10.20;99.90;;;;;;5038768;28;20044;-87
2024/02/18 06:02:08;;;;;;;7.90;2.53;;;10.20;99.90;;;;;;5040480;28;20025;-86
2024/02/18 06:04:34;;;;;;;10.10;3.70;;;10.20;99.90;;;;;;5039705;28;20501;-84
2024/02/18 06:06:59;;;;;;;8.47;3.70;;;10.20;99.90;;;;;;5039315;28;20025;-86
2024/02/18 06:09:25;;;;;;;9.80;3.83;;;10.20;99.90;;;;;;5039514;28;20085;-86
2024/02/18 06:11:51;;;;;;;8.53;3.93;;;10.20;99.90;;;;;;5038949;28;20026;-85
2024/02/18 06:14:17;;;;;;;8.07;3.67;;;10.20;99.90;;;;;;5038561;28;20048;-86
2024/02/18 06:16:43;;;;;;;13.27;4.13;;;10.20;99.90;;;;;;5020573;28;20022;-86
2024/02/18 06:19:09;;;;;;;11.93;3.63;;;10.20;99.90;;;;;;5020073;28;20093;-86
2024/02/18 06:21:35;;;;;;;10.37;3.63;;;10.20;99.90;;;;;;5036130;28;20014;-85
2024/02/18 06:24:04;;;;;;;9.53;3.90;;;10.10;99.90;;;;;;5035802;28;20080;-85
2024/02/18 06:26:29;;;;;;;9.27;3.33;;;10.10;99.90;;;;;;5021065;28;20030;-85
2024/02/18 06:28:55;;;;;;;12.33;3.40;;;10.10;99.90;;;;;;5018765;28;20386;-86
2024/02/18 06:31:21;;;;;;;10.57;4.00;;;10.10;99.90;;;;;;5019307;28;20026;-86
2024/02/18 06:33:47;;;;;;;14.23;3.67;;;10.10;99.90;;;;;;5018960;28;20030;-86
2024/02/18 06:36:14;;;;;;;13.03;4.30;;;10.10;99.90;;;;;;5021347;28;20048;-85
2024/02/18 06:38:44;;;;;;;10.63;3.33;;;10.00;99.90;;;;;;5019345;28;20045;-86
2024/02/18 06:41:10;;;;;;;11.07;3.73;;;10.10;99.90;;;;;;5021055;28;20029;-86
2024/02/18 06:43:36;;;;;;;12.67;4.40;;;10.00;99.90;;;;;;5036507;28;20030;-86
2024/02/18 06:46:02;;;;;;;14.17;4.37;;;10.00;99.90;;;;;;5020093;28;20034;-87
2024/02/18 06:48:27;;;;;;;8.83;3.33;;;10.00;99.90;;;;;;5019845;28;20022;-86
2024/02/18 06:50:53;;;;;;;11.27;3.87;;;10.00;99.90;;;;;;5018740;28;20026;-86
2024/02/18 06:53:19;;;;;;;9.20;3.63;;;10.00;99.90;;;;;;5019649;28;20060;-86
2024/02/18 06:55:45;;;;;;;12.63;4.27;;;9.90;99.90;;;;;;5035346;28;20026;-87
2024/02/18 06:58:14;;;;;;;10.63;3.47;;;10.00;99.90;;;;;;5021853;28;20030;-86
2024/02/18 07:00:40;;;;;;;10.37;3.83;;;9.90;99.90;;;;;;5025730;28;20025;-86
2024/02/18 07:03:06;;;;;;;6.30;2.63;;;9.90;99.90;;;;;;5043705;28;20067;-87
2024/02/18 07:05:32;;;;;;;9.83;3.30;;;9.90;99.90;;;;;;5026489;28;20093;-85
2024/02/18 07:07:59;;;;;;;11.57;2.80;;;9.90;99.90;;;;;;5025501;28;20017;-85
2024/02/18 07:10:25;;;;;;;12.43;3.50;;;9.90;99.90;;;;;;5026912;28;20028;-85
2024/02/18 07:12:51;;;;;;;9.67;3.00;;;9.90;99.90;;;;;;5044049;28;20025;-87
2024/02/18 07:15:17;;;;;;;10.47;2.80;;;9.90;99.90;;;;;;5044416;28;20081;-87
2024/02/18 07:17:42;;;;;;;8.30;3.50;;;9.90;99.90;;;;;;5026281;28;20022;-86
2024/02/18 07:20:09;;;;;;;9.93;2.83;;;9.80;99.90;;;;;;5025811;28;20017;-87
2024/02/18 07:22:35;;;;;;;10.70;2.57;;;9.80;99.90;;;;;;5026200;28;20026;-87
2024/02/18 07:25:02;;;;;;;10.00;3.07;;;9.80;99.90;;;;;;5025103;28;20869;-88
2024/02/18 07:27:28;;;;;;;13.97;3.53;;;9.80;99.90;;;;;;5026485;28;20057;-88
2024/02/18 07:29:53;;;;;;;9.83;2.70;;;9.80;99.90;;;;;;5025843;28;20048;-87
2024/02/18 07:32:19;;;;;;;12.23;3.27;;;9.80;99.90;;;;;;5026132;28;20167;-87
2024/02/18 07:34:45;;;;;;;11.37;4.27;;;9.70;99.90;;;;;;5026168;28;20085;-87
2024/02/18 07:37:10;;;;;;;8.50;3.00;;;9.70;99.90;;;;;;5025470;28;20112;-87
2024/02/18 07:39:36;;;;;;;10.37;3.23;;;9.70;99.90;;;;;;5026770;28;20040;-87
2024/02/18 07:42:03;;;;;;;9.80;3.10;;;9.70;99.90;;;;;;5043270;28;20036;-87
2024/02/18 07:44:28;;;;;;;11.50;3.80;;;9.70;99.90;;;;;;5044269;28;20037;-87
2024/02/18 07:46:57;;;;;;;9.20;3.10;;;9.60;99.90;;;;;;5043221;28;20033;-88
2024/02/18 07:49:23;;;;;;;12.17;2.90;;;9.60;99.90;;;;;;5044652;28;20092;-86
2024/02/18 07:51:49;;;;;;;10.90;3.43;;;9.60;99.90;;;;;;5026742;28;20029;-86
2024/02/18 07:54:15;;;;;;;7.97;3.00;;;9.60;99.90;;;;;;5043458;28;20025;-84
2024/02/18 07:56:46;;;;;;;10.50;3.63;;;9.60;99.90;;;;;;5044745;28;20048;-86
2024/02/18 07:59:16;;;;;;;12.83;3.43;;;9.60;99.90;;;;;;5025492;28;20466;-86
2024/02/18 08:01:44;;;;;;;15.80;4.17;;;9.60;99.90;;;;;;5045759;28;20009;-85
2024/02/18 08:04:10;;;;;;;7.93;2.90;;;9.60;99.90;;;;;;5039989;28;20404;-85
2024/02/18 08:06:36;;;;;;;9.80;3.83;;;9.60;99.90;;;;;;5048060;28;20048;-86
2024/02/18 08:09:03;;;;;;;12.27;3.73;;;9.60;99.90;;;;;;5065466;28;20029;-85
2024/02/18 08:11:29;;;;;;;10.97;4.13;;;9.60;99.90;;;;;;5045521;28;20092;-85
2024/02/18 08:13:54;;;;;;;13.60;3.87;;;9.60;99.90;;;;;;5047210;28;20071;-85
2024/02/18 08:16:20;;;;;;;15.47;4.73;;;9.60;99.90;;;;;;5065094;28;20025;-85
2024/02/18 08:18:46;;;;;;;10.07;2.90;;;9.60;99.90;;;;;;5066212;28;20017;-86
2024/02/18 08:21:12;;;;;;;15.00;4.47;;;9.60;99.90;;;;;;5047159;28;20056;-86
2024/02/18 08:23:37;;;;;;;16.03;3.67;;;9.50;99.90;;;;;;5047835;28;20025;-85
2024/02/18 08:26:04;;;;;;;10.50;4.53;;;9.50;99.90;;;;;;5046739;28;20033;-85
2024/02/18 08:28:29;;;;;;;10.07;4.10;;;9.50;99.90;;;;;;5064869;28;20028;-86
2024/02/18 08:30:56;;;;;;;13.20;4.90;;;9.50;99.90;;;;;;5047559;28;20385;-85
2024/02/18 08:33:22;;;;;;;14.03;5.20;;;9.40;99.90;;;;;;5064665;28;20027;-86
2024/02/18 08:35:49;;;;;;;14.07;4.37;;;9.40;99.90;;;;;;5046656;28;20084;-85
2024/02/18 08:38:15;;;;;;;14.67;4.97;;;9.30;99.90;;;;;;5046216;28;20076;-86
2024/02/18 08:40:41;;;;;;;11.90;5.00;;;9.30;99.90;;;;;;5064793;28;20014;-86
2024/02/18 08:43:07;;;;;;;17.60;5.87;;;9.30;99.90;;;;;;5046191;28;20017;-85
2024/02/18 08:45:32;;;;;;;15.23;6.23;;;9.20;99.90;;;;;;5063101;28;20084;-86
2024/02/18 08:47:59;;;;;;;12.47;5.00;;;9.20;99.90;;;;;;5063262;28;20021;-86
2024/02/18 08:50:26;;;;;;;18.03;6.53;;;9.10;99.90;;;;;;5062248;28;20029;-87
2024/02/18 08:52:51;;;;;;;17.83;5.77;;;9.10;99.90;;;;;;5045172;28;20071;-87
2024/02/18 08:55:17;;;;;;;16.53;5.90;;;9.10;99.90;;;;;;5062177;28;20020;-87
2024/02/18 08:57:43;;;;;;;14.03;5.80;;;9.10;99.90;;;;;;5045007;28;20091;-88
2024/02/18 09:00:10;;;;;;;14.83;6.43;;;9.00;99.90;;;;;;5040456;28;20049;-88
2024/02/18 09:02:36;;;;;;;13.67;6.83;;;9.00;99.90;;;;;;5042729;28;20045;-87
2024/02/18 09:05:02;;;;;;;16.83;6.87;;;9.00;99.90;;;;;;5042416;28;20074;-87
2024/02/18 09:07:30;;;;;;;11.43;5.87;;;8.90;99.90;;;;;;5041799;28;20103;-88
2024/02/18 09:09:56;;;;;;;12.77;5.60;;;8.90;99.90;;;;;;5042732;28;20051;-89
2024/02/18 09:12:22;;;;;;;11.50;5.50;;;8.90;99.90;;;;;;5041664;28;20045;-88
2024/02/18 09:14:47;;;;;;;20.07;6.97;;;8.90;99.90;;;;;;5042184;28;20028;-88
2024/02/18 09:17:17;;;;;;;19.77;6.67;;;8.90;99.90;;;;;;5041474;28;20025;-87
2024/02/18 09:19:45;;;;;;;13.13;6.60;;;8.90;99.90;;;;;;5040808;28;20370;-88
2024/02/18 09:22:11;;;;;;;11.77;5.87;;;8.80;99.90;;;;;;5040950;28;20362;-85
2024/02/18 09:24:37;;;;;;;13.23;5.47;;;8.80;99.90;;;;;;5040426;28;20091;-85
2024/02/18 09:27:02;;;;;;;16.17;6.27;;;8.80;99.90;;;;;;5042349;28;20586;-88
2024/02/18 09:29:30;;;;;;;16.50;6.60;;;8.80;99.90;;;;;;5042356;28;20041;-86
2024/02/18 09:31:56;;;;;;;13.40;6.10;;;8.80;99.90;;;;;;5043579;28;20018;-87
2024/02/18 09:34:22;;;;;;;9.70;5.23;;;8.80;99.90;;;;;;5040606;28;20032;-83
2024/02/18 09:36:47;;;;;;;13.53;5.57;;;8.80;99.90;;;;;;5041053;28;20032;-86
2024/02/18 09:39:13;;;;;;;16.03;6.33;;;8.80;99.90;;;;;;5039674;28;20090;-87
2024/02/18 09:41:39;;;;;;;13.07;6.50;;;8.80;99.90;;;;;;5040438;28;20489;-86
2024/02/18 09:44:05;;;;;;;17.80;7.03;;;8.80;99.90;;;;;;5039857;28;20032;-86
2024/02/18 09:46:34;;;;;;;14.53;6.47;;;8.80;99.90;;;;;;5038398;28;20025;-86
2024/02/18 09:49:00;;;;;;;13.30;6.77;;;8.80;99.90;;;;;;5039153;28;20053;-86
2024/02/18 09:51:27;;;;;;;17.00;6.17;;;8.80;99.90;;;;;;5038890;28;20033;-87
2024/02/18 09:53:54;;;;;;;18.47;6.07;;;8.80;99.90;;;;;;5040022;28;20056;-86
2024/02/18 09:56:20;;;;;;;19.73;7.67;;;8.80;99.90;;;;;;5039599;28;20537;-86
2024/02/18 09:58:46;;;;;;;14.33;5.93;;;8.80;99.90;;;;;;5039082;28;20056;-86
2024/02/18 10:01:19;;;;;;;21.87;7.00;;;8.80;99.90;;;;;;5040123;28;20051;-87
2024/02/18 10:03:45;;;;;;;16.20;7.00;;;8.80;99.90;;;;;;5038678;28;20029;-85
2024/02/18 10:06:13;;;;;;;17.07;7.20;;;8.80;99.90;;;;;;5039928;28;20561;-86
2024/02/18 10:08:43;;;;;;;17.77;6.60;;;8.80;99.90;;;;;;5040329;28;20029;-85
2024/02/18 10:11:12;;;;;;;21.60;7.23;;;8.80;99.90;;;;;;5041062;28;20459;-86
2024/02/18 10:13:38;;;;;;;13.30;6.23;;;8.80;99.90;;;;;;5039944;28;20037;-85
2024/02/18 10:16:07;;;;;;;18.47;7.03;;;8.80;99.90;;;;;;5038723;28;20100;-86
2024/02/18 10:18:33;;;;;;;16.80;6.43;;;8.80;99.90;;;;;;5041497;28;20029;-86
2024/02/18 10:20:59;;;;;;;15.10;6.40;;;8.80;99.90;;;;;;5040072;28;20033;-86
2024/02/18 10:23:26;;;;;;;17.30;6.20;;;8.90;99.90;;;;;;5039524;28;20388;-86
2024/02/18 10:25:51;;;;;;;25.57;6.77;;;8.90;99.90;;;;;;5040224;28;20443;-86
2024/02/18 10:28:17;;;;;;;20.27;6.47;;;8.90;99.90;;;;;;5040903;28;20047;-87
2024/02/18 10:30:43;;;;;;;15.00;5.80;;;8.90;99.90;;;;;;5038536;28;20570;-87
2024/02/18 10:33:09;;;;;;;19.63;6.80;;;8.90;99.90;;;;;;5039074;28;20033;-86
2024/02/18 10:35:34;;;;;;;14.87;6.67;;;8.80;99.90;;;;;;5039317;28;20408;-87
2024/02/18 10:38:02;;;;;;;13.67;6.60;;;8.80;99.90;;;;;;5038279;28;20453;-87
2024/02/18 10:40:33;;;;;;;10.97;6.17;;;8.80;99.90;;;;;;5039437;28;20040;-87
2024/02/18 10:43:01;;;;;;;15.40;6.57;;;8.80;99.90;;;;;;5038527;28;20044;-87
2024/02/18 10:45:27;;;;;;;15.03;5.80;;;8.90;99.90;;;;;;5040335;28;20085;-87
2024/02/18 10:47:54;;;;;;;14.03;5.60;;;8.90;99.90;;;;;;5039453;28;20044;-86
2024/02/18 10:50:24;;;;;;;14.23;5.77;;;8.90;99.90;;;;;;5039897;28;20030;-87
2024/02/18 10:53:15;;;;;;;20.47;6.40;;;8.90;99.90;;;;;;5041519;28;20080;-88
2024/02/18 10:56:19;;;;;;;12.73;5.73;;;8.90;99.90;;;;;;5038131;28;20029;-87
2024/02/18 10:59:23;;;;;;;15.23;5.80;;;8.90;99.90;;;;;;5034505;28;20108;-87
2024/02/18 11:02:07;;;;;;;15.75;6.15;;;8.90;99.90;;;;;;5010432;28;20033;-87
2024/02/18 11:04:33;;;;;;;12.95;5.80;;;8.80;99.90;;;;;;5041768;28;20037;-87
2024/02/18 11:07:00;;;;;;;13.40;5.47;;;8.90;99.90;;;;;;5059863;28;20025;-88
2024/02/18 11:09:27;;;;;;;12.53;5.57;;;8.80;99.90;;;;;;5041760;28;20265;-87
2024/02/18 11:11:55;;;;;;;10.57;5.73;;;8.90;99.90;;;;;;5059546;28;20013;-87
2024/02/18 11:14:23;;;;;;;14.10;5.13;;;8.90;99.90;;;;;;5041694;28;20033;-87
2024/02/18 11:16:48;;;;;;;12.13;5.50;;;8.90;99.90;;;;;;5041124;28;20032;-87
2024/02/18 11:19:14;;;;;;;13.80;5.53;;;8.90;99.90;;;;;;5042647;28;20112;-87
2024/02/18 11:21:41;;;;;;;12.77;5.47;;;8.90;99.90;;;;;;5061876;28;20021;-85
2024/02/18 11:24:10;;;;;;;12.17;5.13;;;8.90;99.90;;;;;;5060878;28;20080;-87
2024/02/18 11:26:36;;;;;;;18.43;5.43;;;8.90;99.90;;;;;;5060474;28;20017;-87
2024/02/18 11:29:02;;;;;;;15.17;5.53;;;8.90;99.90;;;;;;5041469;28;20047;-87
2024/02/18 11:31:30;;;;;;;13.93;5.00;;;8.90;99.90;;;;;;5059841;28;20041;-87
2024/02/18 11:33:56;;;;;;;14.63;5.53;;;8.90;99.90;;;;;;5040944;28;20105;-87
2024/02/18 11:36:29;;;;;;;16.43;5.17;;;8.90;99.90;;;;;;5042281;28;20037;-86
2024/02/18 11:38:57;;;;;;;14.67;4.93;;;8.80;99.90;;;;;;5054969;28;20021;-86
2024/02/18 11:41:34;;;;;;;13.20;4.63;;;8.80;99.90;;;;;;5041888;28;20500;-87
2024/02/18 11:44:10;;;;;;;13.07;4.53;;;8.80;99.90;;;;;;5045192;28;20050;-87
2024/02/18 11:46:39;;;;;;;17.33;4.80;;;8.80;99.90;;;;;;5044961;28;20025;-88
2024/02/18 11:49:05;;;;;;;12.70;4.27;;;8.80;99.90;;;;;;5049207;28;20076;-89
2024/02/18 11:51:31;;;;;;;10.70;3.97;;;8.80;99.90;;;;;;5043587;28;20407;-87
2024/02/18 11:53:57;;;;;;;16.10;5.10;;;8.70;99.90;;;;;;5046021;28;20021;-87
2024/02/18 11:56:23;;;;;;;12.57;4.77;;;8.80;99.90;;;;;;5046385;28;20091;-87
2024/02/18 11:58:50;;;;;;;16.17;5.30;;;8.80;99.90;;;;;;5063025;28;20192;-88
2024/02/18 12:01:19;;;;;;;11.23;5.23;;;8.80;99.90;;;;;;5064008;28;20032;-87
2024/02/18 12:03:48;;;;;;;12.70;4.77;;;8.80;99.90;;;;;;5062143;28;20021;-85
2024/02/18 12:06:14;;;;;;;13.47;4.87;;;8.80;99.90;;;;;;5063412;28;20025;-88
2024/02/18 12:08:40;;;;;;;14.67;5.50;;;8.80;99.90;;;;;;5044093;28;20083;-88
2024/02/18 12:11:06;;;;;;;11.60;4.23;;;8.80;99.90;;;;;;5045187;28;20436;-87
2024/02/18 12:13:33;;;;;;;10.13;5.50;;;8.80;99.90;;;;;;5062842;28;20017;-87
2024/02/18 12:16:04;;;;;;;14.17;5.63;;;8.70;99.90;;;;;;5044031;28;20044;-88
2024/02/18 12:18:29;;;;;;;12.87;5.10;;;8.80;99.90;;;;;;5045439;28;20048;-87
2024/02/18 12:20:55;;;;;;;10.03;4.70;;;8.80;99.90;;;;;;5043863;28;20051;-88
2024/02/18 12:23:25;;;;;;;12.30;5.00;;;8.70;99.90;;;;;;5063015;28;20522;-88
2024/02/18 12:25:56;;;;;;;15.80;5.83;;;8.70;99.90;;;;;;5058079;28;20044;-88
2024/02/18 12:28:21;;;;;;;21.47;5.83;;;8.70;99.90;;;;;;5044887;28;20024;-88
2024/02/18 12:30:48;;;;;;;17.80;5.43;;;8.70;99.90;;;;;;5062412;28;20033;-88
2024/02/18 12:33:15;;;;;;;13.20;5.60;;;8.70;99.90;;;;;;5061891;28;20013;-88
2024/02/18 12:35:41;;;;;;;14.43;6.63;;;8.70;99.90;;;;;;5063551;28;20013;-88
2024/02/18 12:38:08;;;;;;;17.63;5.77;;;8.70;99.90;;;;;;5044352;28;20025;-88
2024/02/18 12:40:35;;;;;;;12.47;5.33;;;8.70;99.90;;;;;;5044521;28;20052;-87
2024/02/18 12:43:02;;;;;;;14.60;7.30;;;8.80;99.90;;;;;;5062154;28;20025;-88